createdAt,value
2024-01-01T00:04:31.332Z,85.5
2024-01-01T00:09:36.422Z,85.5
2024-01-01T00:14:42.336Z,85
2024-01-01T00:19:48.406Z,85
2024-01-01T00:24:54.536Z,84.5
2024-01-01T00:30:00.594Z,85
2024-01-01T00:35:06.607Z,84.5
2024-01-01T00:40:12.730Z,84
2024-01-01T00:45:18.915Z,83.5
2024-01-01T00:50:25.008Z,83
2024-01-01T00:55:31.053Z,82.5
2024-01-01T01:00:37.089Z,82.5
2024-01-01T01:05:43.228Z,83.5
2024-01-01T01:10:49.271Z,84
2024-01-01T01:15:54.380Z,84.5
2024-01-01T01:21:00.472Z,84.5
2024-01-01T01:26:06.575Z,84.5
2024-01-01T01:31:12.669Z,84.5
2024-01-01T01:36:18.771Z,84.5
2024-01-01T01:41:24.948Z,85
2024-01-01T01:46:30.975Z,85
2024-01-01T01:51:37.125Z,85
2024-01-01T01:56:43.162Z,85
2024-01-01T02:01:49.249Z,85.5
2024-01-01T02:06:55.342Z,85
2024-01-01T02:12:01.478Z,85
2024-01-01T02:17:07.547Z,85
2024-01-01T02:22:12.647Z,84.5
2024-01-01T02:27:18.746Z,84.5
2024-01-01T02:32:24.839Z,84.5
2024-01-01T02:37:30.926Z,84
2024-01-01T02:42:37.070Z,84
2024-01-01T02:47:43.250Z,84.5
2024-01-01T02:52:49.227Z,84
2024-01-01T02:57:55.321Z,85
2024-01-01T03:03:01.544Z,85
2024-01-01T03:08:07.518Z,85
2024-01-01T03:13:13.617Z,85.5
2024-01-01T03:18:19.766Z,86
2024-01-01T03:23:25.811Z,86
2024-01-01T03:28:30.954Z,86
2024-01-01T03:33:37.002Z,86.5
2024-01-01T03:38:43.095Z,86.5
2024-01-01T03:43:49.230Z,87
2024-01-01T03:48:55.450Z,87
2024-01-01T03:54:01.574Z,87
2024-01-01T03:59:07.508Z,87.5
2024-01-01T04:04:13.590Z,87
2024-01-01T04:09:19.690Z,87
2024-01-01T04:14:25.773Z,87.5
2024-01-01T04:19:31.928Z,88
2024-01-01T04:24:38.009Z,87.5
2024-01-01T04:29:44.061Z,86.5
2024-01-01T04:34:49.195Z,86.5
2024-01-01T04:39:55.337Z,87
2024-01-01T04:45:01.412Z,87.5
2024-01-01T04:50:07.466Z,88
2024-01-01T04:55:13.575Z,88
2024-01-01T05:05:25.772Z,88
2024-01-01T05:10:31.862Z,88.5
2024-01-01T05:15:38.096Z,89
2024-01-01T05:20:44.043Z,88.5
2024-01-01T05:25:50.160Z,88.5
2024-01-01T05:30:56.269Z,88
2024-01-01T05:36:02.337Z,87.5
2024-01-01T05:41:07.568Z,87
2024-01-01T05:46:13.575Z,87
2024-01-01T05:56:25.747Z,87
2024-01-01T06:01:31.841Z,87.5
2024-01-01T06:06:38.031Z,88
2024-01-01T06:11:44.025Z,88
2024-01-01T06:16:50.131Z,88.5
2024-01-01T06:21:56.205Z,88.5
2024-01-01T06:27:02.376Z,88
2024-01-01T06:32:08.498Z,88.5
2024-01-01T06:37:14.516Z,88.5
2024-01-01T06:42:20.704Z,89
2024-01-01T06:47:25.700Z,88.5
2024-01-01T06:52:31.805Z,88.5
2024-01-01T06:57:37.932Z,88.5
2024-01-01T07:02:44.249Z,89
2024-01-01T07:07:50.224Z,89
2024-01-01T07:12:56.314Z,89
2024-01-01T07:18:02.420Z,89.5
2024-01-01T07:23:08.550Z,89.5
2024-01-01T07:33:20.617Z,89.5
2024-01-01T07:38:26.878Z,89
2024-01-01T07:43:32.843Z,88.5
2024-01-01T07:48:39.008Z,88
2024-01-01T07:53:44.022Z,88
2024-01-01T07:58:50.098Z,88.5
2024-01-01T08:03:56.219Z,88.5
2024-01-01T08:09:02.295Z,88.5
2024-01-01T08:14:08.401Z,90.5
2024-01-01T08:19:14.587Z,90.5
2024-01-01T08:24:20.560Z,89
2024-01-01T08:29:26.829Z,88.5
2024-01-01T08:34:32.764Z,88
2024-01-01T08:39:39.035Z,87
2024-01-01T08:44:44.982Z,86.5
2024-01-01T08:49:51.063Z,87
2024-01-01T08:54:57.268Z,88
2024-01-01T09:00:02.256Z,87.5
2024-01-01T09:05:08.355Z,86.5
2024-01-01T09:10:14.490Z,86.5
2024-01-01T09:15:20.652Z,86.5
2024-01-01T09:20:26.746Z,86.5
2024-01-01T09:25:32.947Z,86.5
2024-01-01T09:30:38.845Z,86.5
2024-01-01T09:35:45.070Z,86
2024-01-01T09:40:51.088Z,84.5
2024-01-01T09:45:57.154Z,84
2024-01-01T09:51:03.416Z,84.5
2024-01-01T09:56:09.325Z,84.5
2024-01-01T10:01:15.396Z,84.5
2024-01-01T10:06:20.527Z,84
2024-01-01T10:11:26.631Z,83.5
2024-01-01T10:16:32.781Z,83.5
2024-01-01T10:21:38.910Z,84
2024-01-01T10:26:44.906Z,83
2024-01-01T10:31:51.023Z,82.5
2024-01-01T10:36:57.120Z,81
2024-01-01T10:42:03.295Z,82
2024-01-01T10:47:09.350Z,80.5
2024-01-01T10:52:15.448Z,79
2024-01-01T10:57:21.502Z,79.5
2024-01-01T11:02:27.593Z,77.5
2024-01-01T11:07:33.874Z,78
2024-01-01T11:12:38.892Z,76
2024-01-01T11:17:44.941Z,76.5
2024-01-01T11:22:50.974Z,74.5
2024-01-01T11:27:57.191Z,74.5
2024-01-01T11:33:03.169Z,75
2024-01-01T11:38:09.391Z,75.5
2024-01-01T11:43:15.475Z,74
2024-01-01T11:48:21.444Z,74.5
2024-01-01T11:53:27.634Z,74
2024-01-01T11:58:33.650Z,73
2024-01-01T12:03:39.794Z,73
2024-01-01T12:08:45.828Z,73
2024-01-01T12:13:51.924Z,72.5
2024-01-01T12:18:57.075Z,73
2024-01-01T12:24:03.140Z,71.5
2024-01-01T12:29:09.233Z,72
2024-01-01T12:34:15.330Z,70.5
2024-01-01T12:39:21.451Z,71
2024-01-01T12:44:27.539Z,70.5
2024-01-01T12:49:33.639Z,70.5
2024-01-01T12:54:40.022Z,70.5
2024-01-01T12:59:45.798Z,71.5
2024-01-01T13:04:51.948Z,73.5
2024-01-01T13:09:58.075Z,73
2024-01-01T13:15:04.092Z,73.5
2024-01-01T13:20:10.267Z,73.5
2024-01-01T13:25:15.307Z,73.5
2024-01-01T13:30:21.426Z,74
2024-01-01T13:35:27.497Z,73.5
2024-01-01T13:40:33.679Z,75
2024-01-01T13:45:39.681Z,75
2024-01-01T13:50:45.909Z,75
2024-01-01T13:55:51.865Z,76
2024-01-01T14:00:57.982Z,77
2024-01-01T14:06:04.073Z,76.5
2024-01-01T14:11:10.287Z,77
2024-01-01T14:16:16.271Z,77
2024-01-01T14:21:22.408Z,78
2024-01-01T14:26:28.686Z,79.5
2024-01-01T14:31:33.564Z,80.5
2024-01-01T14:36:39.671Z,81.5
2024-01-01T14:41:45.751Z,82
2024-01-01T14:46:52.006Z,82.5
2024-01-01T14:51:57.973Z,83
2024-01-01T14:57:04.110Z,83.5
2024-01-01T15:02:10.177Z,83.5
2024-01-01T15:07:16.261Z,83.5
2024-01-01T15:12:22.442Z,83.5
2024-01-01T15:17:28.420Z,84
2024-01-01T15:22:34.514Z,85
2024-01-01T15:27:40.664Z,85
2024-01-01T15:32:46.741Z,85.5
2024-01-01T15:37:51.837Z,86
2024-01-01T15:42:57.968Z,86
2024-01-01T15:48:04.018Z,86
2024-01-01T15:53:10.180Z,86.5
2024-01-01T15:58:16.204Z,86.5
2024-01-01T16:03:22.320Z,86.5
2024-01-01T16:08:28.404Z,86.5
2024-01-01T16:13:34.498Z,86.5
2024-01-01T16:18:40.629Z,87
2024-01-01T16:23:46.742Z,87
2024-01-01T16:28:52.774Z,86.5
2024-01-01T16:33:58.891Z,86.5
2024-01-01T16:39:04.997Z,86
2024-01-01T16:44:10.094Z,86
2024-01-01T16:49:16.206Z,86.5
2024-01-01T16:54:22.297Z,87
2024-01-01T16:59:28.434Z,87.5
2024-01-01T17:04:34.567Z,87.5
2024-01-01T17:09:40.626Z,88.5
2024-01-01T17:14:45.744Z,88.5
2024-01-01T17:19:51.864Z,88.5
2024-01-01T17:24:58.105Z,87.5
2024-01-01T17:30:04.131Z,87
2024-01-01T17:35:10.097Z,87
2024-01-01T17:40:16.192Z,87.5
2024-01-01T17:45:22.361Z,87.5
2024-01-01T17:50:28.374Z,88
2024-01-01T17:55:34.559Z,88
2024-01-01T18:00:40.557Z,87.5
2024-01-01T18:05:46.666Z,87.5
2024-01-01T18:10:52.898Z,87.5
2024-01-01T18:15:58.874Z,88
2024-01-01T18:21:04.013Z,88
2024-01-01T18:26:10.058Z,87.5
2024-01-01T18:31:16.219Z,87.5
2024-01-01T18:36:22.313Z,87.5
2024-01-01T18:41:28.461Z,87
2024-01-01T18:46:34.531Z,87
2024-01-01T18:51:40.558Z,87.5
2024-01-01T18:56:46.701Z,87.5
2024-01-01T19:01:52.806Z,87.5
2024-01-01T19:06:58.836Z,87.5
2024-01-01T19:12:04.945Z,88
2024-01-01T19:17:11.095Z,87.5
2024-01-01T19:22:17.135Z,87
2024-01-01T19:27:22.301Z,88
2024-01-01T19:32:28.339Z,88
2024-01-01T19:37:34.446Z,88
2024-01-01T19:42:40.538Z,88
2024-01-01T19:47:46.623Z,87.5
2024-01-01T19:52:52.703Z,88
2024-01-01T19:57:58.813Z,88.5
2024-01-01T20:03:04.910Z,88.5
2024-01-01T20:08:11.014Z,88
2024-01-01T20:13:17.165Z,88.5
2024-01-01T20:18:23.205Z,89
2024-01-01T20:23:29.466Z,89.5
2024-01-01T20:28:35.381Z,90
2024-01-01T20:33:40.505Z,90.5
2024-01-01T20:38:46.603Z,90
2024-01-01T20:43:52.696Z,90.5
2024-01-01T20:48:58.792Z,90
2024-01-01T20:54:04.894Z,90
2024-01-01T20:59:10.976Z,90
2024-01-01T21:04:17.258Z,90.5
2024-01-01T21:09:23.188Z,91.5
2024-01-01T21:14:29.337Z,91
2024-01-01T21:19:35.378Z,92
2024-01-01T21:24:41.548Z,93
2024-01-01T21:29:47.603Z,93.5
2024-01-01T21:34:54.010Z,94.5
2024-01-01T21:39:58.954Z,95
2024-01-01T21:45:05.057Z,95.5
2024-01-01T21:50:11.022Z,95.5
2024-01-01T21:55:17.154Z,97
2024-01-01T22:00:23.181Z,97
2024-01-01T22:05:29.434Z,97
2024-01-01T22:15:41.460Z,96
2024-01-01T22:20:47.672Z,95.5
2024-01-01T22:25:53.787Z,95
2024-01-01T22:30:59.818Z,95
2024-01-01T22:36:05.874Z,96
2024-01-01T22:41:11.968Z,96
2024-01-01T22:46:17.147Z,96.5
2024-01-01T22:51:23.256Z,96.5
2024-01-01T22:56:29.268Z,97
2024-01-01T23:01:35.413Z,97
2024-01-01T23:06:41.512Z,97.5
2024-01-01T23:11:47.575Z,97
2024-01-01T23:16:53.658Z,96.5
2024-01-01T23:21:59.770Z,96
2024-01-01T23:27:05.865Z,95.5
2024-01-01T23:32:12.091Z,96.5
2024-01-01T23:37:18.064Z,96.5
2024-01-01T23:42:24.212Z,97
2024-01-01T23:47:30.259Z,97.5
2024-01-01T23:52:35.389Z,97.5
2024-01-01T23:57:41.471Z,98
